Highland Park, Illinois
Current Conditions -  °F | °C
As of 3:52 AM on Sunday 26 Oct 2014 (Local Time) from KPWK Reporting Station
Clear Clear  
Wind Chill: 45°   Ceiling: Unl
Heat Index: 47°   Visibility: 10mi
Dew Point: 29°   Wind: 5mph
Humidity: 50%   Direction: 320°NW
Pressure: 30.02"   Gusts: NA
Location:  42.19°N, 87.8°W
Report Text: KPWK 260852Z AUTO 32004KT 10SM CLR 08/M02 A3002 RMK AO2 SLP164 T00831017 51009
Loading
Personal Weather Stations






























Interactive Weather Map
Tropical Storm Tracking
New forecast layout! Learn more

10-Day Weather Forecast

Advertisements
Track Severe Weather on mobile